Time;durP1;ratioP1;P1;durP2;ratioP2;P2;SDS_P1;SDS_P2;PMS_P1;PMS_P2;Temp;Humidity;BMP_temperature;BMP_pressure;BME280_temperature;BME280_humidity;BME280_pressure;Samples;Min_cycle;Max_cycle;Signal;HPM_P1;HPM_P2
2023/04/13 00:00:07;;;;;;;72.60;66.20;;;9.00;99.90;;;;;;5007361;28;20056;-88
2023/04/13 00:02:37;;;;;;;50.78;46.17;;;8.80;1.00;;;;;;4994605;28;20505;-88
2023/04/13 00:05:06;;;;;;;78.00;66.72;;;8.70;99.90;;;;;;5007241;28;20113;-89
2023/04/13 00:07:32;;;;;;;59.53;54.60;;;8.60;1.00;;;;;;4987647;28;20034;-88
2023/04/13 00:10:01;;;;;;;41.72;37.63;;;8.50;99.90;;;;;;4994126;28;20044;-90
2023/04/13 00:12:27;;;;;;;40.03;36.58;;;8.40;1.00;;;;;;5004130;28;20124;-88
2023/04/13 00:14:53;;;;;;;29.65;26.63;;;10.30;99.90;;;;;;5010589;28;20124;-89
2023/04/13 00:17:18;;;;;;;32.72;29.40;;;8.30;99.90;;;;;;5006101;28;20112;-90
2023/04/13 00:19:46;;;;;;;49.63;45.53;;;8.10;1.00;;;;;;4995021;28;20711;-88
2023/04/13 00:22:13;;;;;;;30.92;27.67;;;8.40;99.90;;;;;;4992392;28;20502;-89
2023/04/13 00:24:38;;;;;;;41.88;36.40;;;8.30;99.90;;;;;;4988916;28;20043;-89
2023/04/13 00:27:04;;;;;;;18.88;17.42;;;9.70;99.90;;;;;;4986983;28;20084;-89
2023/04/13 00:29:29;;;;;;;41.28;38.17;;;8.30;99.90;;;;;;4994323;28;20045;-88
2023/04/13 00:31:55;;;;;;;15.77;14.40;;;8.20;99.90;;;;;;4995354;28;20459;-89
2023/04/13 00:34:21;;;;;;;40.53;36.53;;;7.80;99.90;;;;;;4994392;28;20041;-89
2023/04/13 00:36:48;;;;;;;23.00;20.85;;;8.20;96.00;;;;;;5000653;28;20046;-86
2023/04/13 00:39:14;;;;;;;20.23;18.17;;;7.80;99.90;;;;;;4993869;28;20704;-82
2023/04/13 00:41:40;;;;;;;21.80;19.63;;;8.30;99.90;;;;;;5006353;28;20078;-83
2023/04/13 00:44:07;;;;;;;34.45;30.95;;;9.00;99.90;;;;;;4978733;28;20074;-83
2023/04/13 00:46:33;;;;;;;39.55;35.03;;;7.90;99.90;;;;;;4991413;28;20038;-83
2023/04/13 00:49:00;;;;;;;33.55;29.95;;;9.20;99.90;;;;;;5010097;28;20100;-83
2023/04/13 00:51:29;;;;;;;44.40;32.97;;;7.80;99.90;;;;;;4989398;28;20041;-83
2023/04/13 00:53:57;;;;;;;37.35;34.25;;;10.00;99.90;;;;;;5007269;28;20303;-83
2023/04/13 00:56:26;;;;;;;36.85;32.25;;;7.80;99.90;;;;;;4991263;28;20065;-83
2023/04/13 00:58:55;;;;;;;32.83;25.95;;;10.10;99.90;;;;;;4993335;28;20073;-83
2023/04/13 01:01:20;;;;;;;74.38;55.13;;;8.10;99.90;;;;;;4989181;28;20040;-83
2023/04/13 01:03:47;;;;;;;44.13;36.42;;;8.00;99.90;;;;;;4993122;28;20509;-83
2023/04/13 01:06:26;;;;;;;28.23;25.90;;;8.10;99.90;;;;;;4991279;28;20125;-83
2023/04/13 01:08:59;;;;;;;37.95;30.20;;;8.20;99.90;;;;;;5009844;28;20496;-83
2023/04/13 01:11:31;;;;;;;46.78;42.20;;;8.10;99.90;;;;;;5008877;28;20050;-83
2023/04/13 01:14:15;;;;;;;41.05;35.47;;;9.40;99.90;;;;;;5006889;28;20045;-83
2023/04/13 01:16:43;;;;;;;18.98;17.33;;;8.00;99.90;;;;;;5000507;28;20045;-83
2023/04/13 01:19:31;;;;;;;28.45;25.98;;;8.00;99.90;;;;;;4993562;28;20084;-83
2023/04/13 01:21:57;;;;;;;16.75;15.40;;;8.10;99.90;;;;;;4984085;28;20077;-82
2023/04/13 01:24:55;;;;;;;21.52;19.38;;;8.20;99.90;;;;;;4982390;28;20048;-83
2023/04/13 01:27:43;;;;;;;24.30;22.00;;;8.20;99.90;;;;;;5004091;28;20050;-83
2023/04/13 01:30:10;;;;;;;36.33;32.80;;;8.00;99.90;;;;;;4982202;28;20058;-83
2023/04/13 01:32:37;;;;;;;26.40;22.42;;;8.20;99.90;;;;;;4993321;28;20056;-83
2023/04/13 01:35:05;;;;;;;38.70;32.00;;;8.20;99.90;;;;;;4989790;28;20045;-82
2023/04/13 01:37:32;;;;;;;33.47;30.15;;;8.10;99.90;;;;;;5007981;28;20137;-83
2023/04/13 01:39:57;;;;;;;44.70;36.28;;;8.10;99.90;;;;;;5004804;28;20050;-83
2023/04/13 01:42:24;;;;;;;38.22;29.45;;;8.00;99.90;;;;;;4990461;28;20038;-83
2023/04/13 01:44:50;;;;;;;30.15;27.60;;;8.20;99.90;;;;;;4990737;28;20129;-83
2023/04/13 01:47:24;;;;;;;38.63;31.45;;;8.00;99.90;;;;;;4982090;28;20026;-83
2023/04/13 01:50:07;;;;;;;27.67;24.23;;;8.20;99.90;;;;;;4989997;28;20045;-83
2023/04/13 01:52:34;;;;;;;62.42;47.00;;;8.10;99.90;;;;;;4972671;28;20046;-83
2023/04/13 01:55:00;;;;;;;50.70;35.17;;;8.50;99.90;;;;;;4984729;28;20034;-83
2023/04/13 01:57:29;;;;;;;30.90;23.85;;;9.50;99.90;;;;;;4986567;28;20503;-83
2023/04/13 01:59:55;;;;;;;23.20;21.02;;;8.20;99.90;;;;;;4979304;28;20188;-83
2023/04/13 02:02:21;;;;;;;37.10;33.17;;;8.40;99.90;;;;;;4984072;28;20422;-83
2023/04/13 02:04:47;;;;;;;19.63;17.58;;;8.30;99.90;;;;;;4992701;28;20042;-82
2023/04/13 02:07:12;;;;;;;21.98;20.10;;;8.40;99.90;;;;;;5000833;28;20049;-83
2023/04/13 02:09:38;;;;;;;20.55;15.88;;;8.20;99.90;;;;;;5008680;28;20081;-83
2023/04/13 02:12:04;;;;;;;22.52;20.52;;;8.20;99.90;;;;;;4988689;28;20034;-83
2023/04/13 02:14:30;;;;;;;22.55;20.77;;;8.30;99.90;;;;;;4992569;28;20041;-82
2023/04/13 02:16:56;;;;;;;25.48;22.83;;;8.00;99.90;;;;;;4984001;28;20572;-83
2023/04/13 02:19:23;;;;;;;20.13;18.45;;;8.00;99.90;;;;;;4991734;28;20514;-83
2023/04/13 02:21:49;;;;;;;20.83;19.20;;;8.10;99.90;;;;;;5008093;28;20060;-82
2023/04/13 02:24:15;;;;;;;24.98;22.60;;;8.00;99.90;;;;;;4991153;28;20045;-83
2023/04/13 02:26:42;;;;;;;26.60;24.38;;;8.20;99.90;;;;;;5009087;28;20042;-82
2023/04/13 02:29:08;;;;;;;24.83;22.45;;;8.20;99.90;;;;;;5007987;28;20042;-83
2023/04/13 02:31:34;;;;;;;24.73;22.15;;;8.00;99.90;;;;;;5008413;28;20040;-83
2023/04/13 02:34:00;;;;;;;19.42;16.88;;;8.10;99.90;;;;;;4992019;28;20042;-83
2023/04/13 02:36:26;;;;;;;26.98;24.48;;;8.20;99.90;;;;;;5007316;28;20077;-82
2023/04/13 02:38:53;;;;;;;23.02;20.63;;;7.90;99.90;;;;;;4991139;28;20058;-89
2023/04/13 02:41:21;;;;;;;34.10;30.75;;;7.90;99.90;;;;;;4991879;28;20129;-88
2023/04/13 02:43:49;;;;;;;24.70;21.63;;;7.90;99.90;;;;;;4973383;28;20137;-89
2023/04/13 02:46:15;;;;;;;32.72;25.67;;;7.90;99.90;;;;;;4980239;28;20548;-89
2023/04/13 02:48:41;;;;;;;22.00;19.85;;;7.80;99.90;;;;;;5006061;28;20053;-88
2023/04/13 02:51:06;;;;;;;18.15;16.65;;;7.90;99.90;;;;;;4989220;28;20052;-89
2023/04/13 02:53:32;;;;;;;20.08;18.40;;;7.90;99.90;;;;;;5008871;28;20046;-88
2023/04/13 02:55:58;;;;;;;22.92;21.08;;;7.80;99.90;;;;;;5006238;28;20038;-88
2023/04/13 02:58:24;;;;;;;11.82;10.95;;;7.80;99.90;;;;;;5007012;28;20485;-88
2023/04/13 03:00:49;;;;;;;18.27;16.65;;;7.80;99.90;;;;;;4996553;28;20049;-88
2023/04/13 03:03:15;;;;;;;19.50;17.80;;;7.80;99.90;;;;;;4989164;28;20421;-88
2023/04/13 03:05:42;;;;;;;32.58;29.17;;;7.90;99.90;;;;;;4999978;28;20056;-88
2023/04/13 03:08:09;;;;;;;16.45;15.15;;;8.00;99.90;;;;;;4988072;28;20073;-88
2023/04/13 03:10:36;;;;;;;27.90;25.00;;;8.10;99.90;;;;;;4993781;28;20410;-88
2023/04/13 03:13:02;;;;;;;25.08;22.73;;;8.10;99.90;;;;;;5008212;28;20052;-88
2023/04/13 03:15:28;;;;;;;16.92;15.38;;;7.90;99.90;;;;;;4982692;28;20034;-89
2023/04/13 03:17:53;;;;;;;16.95;15.18;;;8.30;99.90;;;;;;4994498;28;20120;-88
2023/04/13 03:20:21;;;;;;;34.33;29.50;;;8.30;99.90;;;;;;4983724;28;20030;-88
2023/04/13 03:22:46;;;;;;;43.13;35.60;;;8.30;99.90;;;;;;5011019;28;20121;-88
2023/04/13 03:25:12;;;;;;;23.42;19.15;;;8.30;99.90;;;;;;4994497;28;20509;-88
2023/04/13 03:27:38;;;;;;;27.65;23.55;;;8.40;99.90;;;;;;4993646;28;20045;-88
2023/04/13 03:30:04;;;;;;;12.35;11.20;;;8.30;99.90;;;;;;5031962;28;20417;-88
2023/04/13 03:32:31;;;;;;;26.38;23.98;;;8.40;99.90;;;;;;5000696;28;20171;-88
2023/04/13 03:34:56;;;;;;;15.32;13.88;;;8.40;99.90;;;;;;5007909;28;20043;-88
2023/04/13 03:37:22;;;;;;;24.73;21.95;;;8.30;99.90;;;;;;4974840;28;21959;-88
2023/04/13 03:39:48;;;;;;;33.50;27.30;;;8.30;99.90;;;;;;4993146;28;20445;-89
2023/04/13 03:42:13;;;;;;;16.85;15.00;;;9.90;99.90;;;;;;4993798;28;20545;-88
2023/04/13 03:44:39;;;;;;;19.35;16.13;;;10.10;99.90;;;;;;4998036;28;20037;-88
2023/04/13 03:47:05;;;;;;;26.30;22.48;;;8.40;99.90;;;;;;5011948;28;20093;-88
2023/04/13 03:49:30;;;;;;;28.92;22.13;;;8.30;99.90;;;;;;5004381;28;20049;-88
2023/04/13 03:51:57;;;;;;;23.85;12.95;;;8.40;99.90;;;;;;4991198;28;20494;-88
2023/04/13 03:54:23;;;;;;;23.23;20.75;;;8.40;99.90;;;;;;4996131;28;20033;-88
2023/04/13 03:56:49;;;;;;;18.40;16.58;;;8.40;99.90;;;;;;4988487;28;20034;-88
2023/04/13 03:59:15;;;;;;;28.85;21.02;;;8.30;99.90;;;;;;4993236;28;20073;-88
2023/04/13 04:01:40;;;;;;;30.80;25.77;;;8.40;99.90;;;;;;4990138;28;20088;-88
2023/04/13 04:04:06;;;;;;;19.92;17.63;;;8.40;99.90;;;;;;5011407;28;20057;-88
2023/04/13 04:06:32;;;;;;;29.33;23.55;;;10.30;99.90;;;;;;5005464;28;20040;-88
2023/04/13 04:08:57;;;;;;;30.98;26.25;;;8.50;99.90;;;;;;4994740;28;20038;-88
2023/04/13 04:11:23;;;;;;;29.08;25.30;;;8.50;99.90;;;;;;5010339;28;20034;-88
2023/04/13 04:13:48;;;;;;;33.65;26.88;;;10.10;99.90;;;;;;5011539;28;20072;-88
2023/04/13 04:16:15;;;;;;;26.73;21.42;;;8.70;99.90;;;;;;4994270;28;20033;-87
2023/04/13 04:18:41;;;;;;;31.88;22.33;;;8.60;99.90;;;;;;5003338;28;20387;-88
2023/04/13 04:21:07;;;;;;;24.00;18.52;;;8.60;99.90;;;;;;4991527;28;20061;-88
2023/04/13 04:23:36;;;;;;;35.90;29.60;;;8.60;99.90;;;;;;4993355;28;20038;-87
2023/04/13 04:26:03;;;;;;;24.05;16.30;;;8.60;99.90;;;;;;5005291;28;20122;-88
2023/04/13 04:28:37;;;;;;;37.25;31.58;;;9.60;99.90;;;;;;5005085;28;20078;-88
2023/04/13 04:31:09;;;;;;;22.92;17.95;;;8.70;99.90;;;;;;4992231;28;20058;-87
2023/04/13 04:33:37;;;;;;;29.55;17.50;;;8.70;99.90;;;;;;4975631;28;20379;-88
2023/04/13 04:36:08;;;;;;;15.77;14.18;;;8.70;99.90;;;;;;4990570;28;20076;-87
2023/04/13 04:38:34;;;;;;;19.27;16.23;;;8.70;99.90;;;;;;4987883;28;20105;-88
2023/04/13 04:41:00;;;;;;;39.10;26.85;;;8.70;99.90;;;;;;5004450;28;20274;-88
2023/04/13 04:43:28;;;;;;;35.13;27.20;;;10.30;99.90;;;;;;4975130;28;20057;-87
2023/04/13 04:45:56;;;;;;;19.13;13.95;;;8.70;99.90;;;;;;5001913;28;20042;-87
2023/04/13 04:48:23;;;;;;;27.42;20.65;;;8.70;99.90;;;;;;4991687;28;20414;-88
2023/04/13 04:50:54;;;;;;;34.63;24.55;;;8.70;99.90;;;;;;4991705;28;20545;-87
2023/04/13 04:53:20;;;;;;;20.15;13.43;;;10.40;99.90;;;;;;5010909;28;20084;-88
2023/04/13 04:55:46;;;;;;;21.08;15.80;;;8.70;99.90;;;;;;5006300;28;20033;-87
2023/04/13 04:58:11;;;;;;;22.55;17.25;;;8.80;99.90;;;;;;4986288;28;20048;-87
2023/04/13 05:00:37;;;;;;;47.05;33.75;;;8.90;99.90;;;;;;4987807;28;20045;-88
2023/04/13 05:03:03;;;;;;;42.08;27.05;;;9.00;99.90;;;;;;5006362;28;20407;-88
2023/04/13 05:05:29;;;;;;;27.10;23.50;;;9.70;99.90;;;;;;5008763;28;20129;-88
2023/04/13 05:07:55;;;;;;;51.90;38.58;;;9.20;99.90;;;;;;5009928;28;20056;-88
2023/04/13 05:10:23;;;;;;;38.10;28.52;;;9.20;99.90;;;;;;4993980;28;20034;-88
2023/04/13 05:12:49;;;;;;;24.70;21.98;;;9.40;99.90;;;;;;5011013;28;20491;-88
2023/04/13 05:15:15;;;;;;;26.95;24.17;;;9.40;99.90;;;;;;4988441;28;20502;-88
2023/04/13 05:17:40;;;;;;;48.90;38.45;;;11.40;99.90;;;;;;4993672;28;20084;-89
2023/04/13 05:20:07;;;;;;;19.95;17.83;;;9.40;99.90;;;;;;5004583;28;20421;-87
2023/04/13 05:22:32;;;;;;;43.42;27.25;;;9.50;99.90;;;;;;5008900;28;20049;-88
2023/04/13 05:24:58;;;;;;;27.13;23.63;;;9.50;99.90;;;;;;5003780;28;20044;-87
2023/04/13 05:27:23;;;;;;;66.90;54.17;;;9.50;99.90;;;;;;4979983;28;20394;-87
2023/04/13 05:29:50;;;;;;;53.78;29.08;;;9.40;99.90;;;;;;4984683;28;20089;-88
2023/04/13 05:32:15;;;;;;;60.95;36.40;;;9.30;99.90;;;;;;4982882;28;20034;-88
2023/04/13 05:34:41;;;;;;;38.20;28.27;;;9.10;99.90;;;;;;4983264;28;20060;-87
2023/04/13 05:37:08;;;;;;;43.83;39.00;;;9.40;99.90;;;;;;5010347;28;20088;-87
2023/04/13 05:39:35;;;;;;;47.65;42.65;;;11.50;99.90;;;;;;4984196;28;20041;-88
2023/04/13 05:42:00;;;;;;;23.42;20.95;;;9.70;99.90;;;;;;4980051;28;20054;-88
2023/04/13 05:44:26;;;;;;;34.90;26.33;;;9.80;99.90;;;;;;4980671;28;20042;-88
2023/04/13 05:46:52;;;;;;;32.83;23.20;;;9.90;99.90;;;;;;4989971;28;20157;-88
2023/04/13 05:49:18;;;;;;;36.03;28.80;;;9.70;99.90;;;;;;4989817;28;20038;-87
2023/04/13 05:51:43;;;;;;;41.45;37.03;;;11.10;99.90;;;;;;4996879;28;20034;-87
2023/04/13 05:54:10;;;;;;;42.60;38.47;;;9.80;99.90;;;;;;4982888;28;20817;-87
2023/04/13 05:56:35;;;;;;;42.22;37.58;;;11.80;99.90;;;;;;4989857;28;20508;-87
2023/04/13 05:59:03;;;;;;;46.58;41.38;;;9.70;99.90;;;;;;5006562;28;20045;-87
2023/04/13 06:01:29;;;;;;;40.97;36.50;;;9.60;99.90;;;;;;5003726;28;20490;-87
2023/04/13 06:03:55;;;;;;;55.42;50.60;;;9.60;99.90;;;;;;4986954;28;20042;-89
2023/04/13 06:06:21;;;;;;;40.83;36.40;;;9.70;99.90;;;;;;5003974;28;20092;-88
2023/04/13 06:08:47;;;;;;;47.72;42.92;;;9.90;99.90;;;;;;4976718;28;20084;-88
2023/04/13 06:11:14;;;;;;;47.00;41.95;;;10.00;99.90;;;;;;4987376;28;20505;-88
2023/04/13 06:13:40;;;;;;;54.97;49.67;;;10.00;99.90;;;;;;5007817;28;20435;-91
2023/04/13 06:16:09;;;;;;;38.97;35.60;;;11.30;99.90;;;;;;4981780;28;20707;-91
2023/04/13 06:18:34;;;;;;;45.85;41.22;;;10.10;99.90;;;;;;4987899;28;20077;-91
2023/04/13 06:21:00;;;;;;;33.75;30.25;;;10.10;99.90;;;;;;4999334;28;20072;-90
2023/04/13 06:23:26;;;;;;;53.58;48.42;;;9.90;99.90;;;;;;4975235;28;20056;-92
2023/04/13 06:25:52;;;;;;;42.13;38.08;;;10.60;99.90;;;;;;4990253;28;20398;-91
2023/04/13 06:28:18;;;;;;;48.58;44.50;;;11.70;99.90;;;;;;4996910;28;20046;-91
2023/04/13 06:30:43;;;;;;;40.05;36.80;;;9.70;99.90;;;;;;4982910;28;20038;-91
2023/04/13 06:33:10;;;;;;;43.63;40.08;;;9.60;99.90;;;;;;4994921;28;20042;-92
2023/04/13 06:35:36;;;;;;;61.22;55.17;;;9.50;99.90;;;;;;5003984;28;20532;-90
2023/04/13 06:38:01;;;;;;;46.50;40.88;;;9.80;99.90;;;;;;5003572;28;20054;-90
2023/04/13 06:40:30;;;;;;;40.92;37.25;;;10.00;99.90;;;;;;4987972;28;20097;-89
2023/04/13 06:42:55;;;;;;;45.67;41.30;;;11.80;99.90;;;;;;5001141;28;20053;-91
2023/04/13 06:45:21;;;;;;;50.28;45.70;;;11.30;99.90;;;;;;4990565;28;20586;-88
2023/04/13 06:47:47;;;;;;;46.00;41.72;;;10.20;99.90;;;;;;5005849;28;20099;-91
2023/04/13 06:50:14;;;;;;;51.70;47.05;;;10.50;99.90;;;;;;4988536;28;20061;-89
2023/04/13 06:52:47;;;;;;;52.25;47.47;;;10.50;99.90;;;;;;4983612;28;20033;-89
2023/04/13 06:55:13;;;;;;;35.45;32.35;;;11.90;99.90;;;;;;4990945;28;20057;-90
2023/04/13 06:57:39;;;;;;;46.38;42.60;;;10.10;99.90;;;;;;5004784;28;20113;-89
2023/04/13 07:00:07;;;;;;;48.30;44.45;;;9.70;99.90;;;;;;4988836;28;20516;-89
2023/04/13 07:02:32;;;;;;;55.92;50.92;;;9.70;99.90;;;;;;4992830;28;20042;-90
2023/04/13 07:04:58;;;;;;;47.80;43.97;;;10.00;99.90;;;;;;4998599;28;20050;-90
2023/04/13 07:07:24;;;;;;;50.58;46.35;;;11.70;99.90;;;;;;4998453;28;20038;-91
2023/04/13 07:09:50;;;;;;;55.78;50.40;;;10.30;99.90;;;;;;4986115;28;20119;-90
2023/04/13 07:12:15;;;;;;;39.53;35.67;;;10.40;99.90;;;;;;5004328;28;20049;-90
2023/04/13 07:14:41;;;;;;;45.97;41.60;;;10.60;99.90;;;;;;4991425;28;20068;-90
2023/04/13 07:17:07;;;;;;;40.42;36.95;;;12.00;99.90;;;;;;4986648;28;20033;-90
2023/04/13 07:19:34;;;;;;;38.65;34.72;;;12.40;99.90;;;;;;5001694;28;20037;-92
2023/04/13 07:22:01;;;;;;;52.65;48.03;;;10.60;99.90;;;;;;5000322;28;20046;-90
2023/04/13 07:24:27;;;;;;;48.10;44.17;;;10.40;99.90;;;;;;4986176;28;20042;-90
2023/04/13 07:26:57;;;;;;;47.17;43.08;;;10.30;99.90;;;;;;5000949;28;20145;-90
2023/04/13 07:29:26;;;;;;;63.10;56.90;;;10.20;99.90;;;;;;4998722;28;20533;-89
2023/04/13 07:31:52;;;;;;;53.95;49.33;;;10.10;99.90;;;;;;5004595;28;20113;-89
2023/04/13 07:34:17;;;;;;;56.97;51.53;;;10.40;99.90;;;;;;5000706;28;20043;-90
2023/04/13 07:36:43;;;;;;;54.15;49.45;;;10.60;99.90;;;;;;4997362;28;20137;-89
2023/04/13 07:39:09;;;;;;;68.90;62.97;;;10.60;99.90;;;;;;4984839;28;20597;-89
2023/04/13 07:41:35;;;;;;;52.75;47.65;;;11.00;99.90;;;;;;5002089;28;20048;-89
2023/04/13 07:44:02;;;;;;;48.65;43.75;;;12.20;99.90;;;;;;4983117;28;20517;-89
2023/04/13 07:46:27;;;;;;;35.60;31.70;;;10.50;99.90;;;;;;5005838;28;20050;-89
2023/04/13 07:48:53;;;;;;;44.25;39.95;;;10.60;99.90;;;;;;5004692;28;20038;-90
2023/04/13 07:51:19;;;;;;;44.70;40.33;;;10.70;99.90;;;;;;4976010;28;20413;-89
2023/04/13 07:53:45;;;;;;;55.33;50.70;;;12.40;99.90;;;;;;5005045;28;20778;-91
2023/04/13 07:56:14;;;;;;;30.10;27.20;;;11.20;99.90;;;;;;4992236;28;20044;-92
2023/04/13 07:58:49;;;;;;;53.75;48.30;;;11.30;99.90;;;;;;4999742;28;20042;-89
2023/04/13 08:01:39;;;;;;;23.20;20.95;;;10.90;99.90;;;;;;4944233;28;20194;-91
2023/04/13 08:04:05;;;;;;;37.10;33.80;;;13.10;99.90;;;;;;5004383;28;20116;-91
2023/04/13 08:06:31;;;;;;;33.30;30.05;;;12.40;99.90;;;;;;4988552;28;20050;-88
2023/04/13 08:08:56;;;;;;;37.67;34.47;;;10.90;99.90;;;;;;4980614;28;20034;-90
2023/04/13 08:11:22;;;;;;;24.08;21.85;;;10.80;99.90;;;;;;4981963;28;20497;-89
2023/04/13 08:13:48;;;;;;;43.17;40.03;;;12.70;99.90;;;;;;4998164;28;20113;-91
2023/04/13 08:16:14;;;;;;;19.20;13.18;;;12.70;99.90;;;;;;4978592;28;20034;-91
2023/04/13 08:18:41;;;;;;;52.58;47.30;;;11.20;99.90;;;;;;5004221;28;20619;-91
2023/04/13 08:21:10;;;;;;;21.50;19.10;;;11.70;99.90;;;;;;5002632;28;20058;-92
2023/04/13 08:23:39;;;;;;;33.30;30.08;;;11.90;99.90;;;;;;5001868;28;20460;-91
2023/04/13 08:26:05;;;;;;;36.38;33.05;;;12.50;99.90;;;;;;5008157;28;20113;-90
2023/04/13 08:28:31;;;;;;;11.98;10.82;;;12.50;99.90;;;;;;4983285;28;20438;-90
2023/04/13 08:30:57;;;;;;;12.52;9.27;;;13.70;99.90;;;;;;4991918;28;20038;-91
2023/04/13 08:33:22;;;;;;;19.98;17.52;;;15.10;99.90;;;;;;4986077;28;20386;-93
2023/04/13 08:35:48;;;;;;;26.83;20.02;;;14.60;99.90;;;;;;4980971;28;20565;-91
2023/04/13 08:38:14;;;;;;;20.20;18.52;;;13.70;99.90;;;;;;5005998;28;20049;-91
2023/04/13 08:40:40;;;;;;;15.27;9.65;;;14.40;99.90;;;;;;5005685;28;20050;-90
2023/04/13 08:43:06;;;;;;;13.18;10.95;;;14.90;99.90;;;;;;4997082;28;20042;-93
2023/04/13 08:45:33;;;;;;;13.68;11.25;;;14.20;99.90;;;;;;4996289;28;20038;-91
2023/04/13 08:48:00;;;;;;;25.40;21.33;;;14.20;99.90;;;;;;5008413;28;20057;-90
2023/04/13 08:50:27;;;;;;;27.77;24.83;;;13.50;99.90;;;;;;4978521;28;20041;-89
2023/04/13 08:52:53;;;;;;;19.90;17.02;;;14.00;99.90;;;;;;4979710;28;20042;-89
2023/04/13 08:55:19;;;;;;;29.65;25.67;;;12.20;99.90;;;;;;5004135;28;20053;-89
2023/04/13 08:57:47;;;;;;;30.88;27.55;;;13.40;99.90;;;;;;5006345;28;20092;-91
2023/04/13 09:00:17;;;;;;;30.60;27.38;;;11.80;99.90;;;;;;5000241;28;20042;-90
2023/04/13 09:02:47;;;;;;;31.90;27.50;;;11.90;99.90;;;;;;5004251;28;20099;-91
2023/04/13 09:05:16;;;;;;;33.80;28.48;;;12.20;99.90;;;;;;5006878;28;20057;-92
2023/04/13 09:07:50;;;;;;;48.67;42.95;;;13.60;99.90;;;;;;4986390;28;20045;-91
2023/04/13 09:10:17;;;;;;;27.27;21.92;;;12.10;99.90;;;;;;5006669;28;20057;-91
2023/04/13 09:12:43;;;;;;;24.60;22.10;;;12.20;99.90;;;;;;4985232;28;20168;-88
2023/04/13 09:15:12;;;;;;;34.70;29.55;;;12.30;99.90;;;;;;4997889;28;20492;-91
2023/04/13 09:17:38;;;;;;;39.45;32.90;;;11.80;99.90;;;;;;4998683;28;20053;-90
2023/04/13 09:20:11;;;;;;;28.65;25.33;;;11.60;99.90;;;;;;5005977;28;20030;-89
2023/04/13 09:22:37;;;;;;;36.90;33.70;;;11.50;99.90;;;;;;4980867;28;20046;-89
2023/04/13 09:25:04;;;;;;;34.70;31.02;;;11.40;99.90;;;;;;5003353;28;20089;-88
2023/04/13 09:27:29;;;;;;;42.10;37.75;;;11.80;99.90;;;;;;4994838;28;20120;-88
2023/04/13 09:29:55;;;;;;;33.92;30.35;;;13.10;99.90;;;;;;4998820;28;20121;-88
2023/04/13 09:32:26;;;;;;;49.60;35.85;;;12.70;99.90;;;;;;4998790;28;20076;-89
2023/04/13 09:35:03;;;;;;;28.05;23.10;;;14.40;99.90;;;;;;5006171;28;20074;-90
2023/04/13 09:37:38;;;;;;;27.45;22.45;;;12.90;99.90;;;;;;4975299;28;20073;-91
2023/04/13 09:40:14;;;;;;;43.53;30.20;;;12.90;99.90;;;;;;5000461;28;20416;-90
2023/04/13 09:42:59;;;;;;;27.50;17.17;;;12.50;99.90;;;;;;4999625;28;20050;-88
2023/04/13 09:45:32;;;;;;;32.35;28.80;;;11.90;99.90;;;;;;4999552;28;20104;-90
2023/04/13 09:48:01;;;;;;;28.50;24.73;;;11.70;99.90;;;;;;5002361;28;20049;-90
2023/04/13 09:50:27;;;;;;;38.83;34.20;;;12.60;99.90;;;;;;4988504;28;20046;-92
2023/04/13 09:53:00;;;;;;;36.40;33.00;;;11.20;99.90;;;;;;4998418;28;20759;-89
2023/04/13 09:55:27;;;;;;;33.80;30.85;;;11.90;99.90;;;;;;4975625;28;20042;-91
2023/04/13 09:57:52;;;;;;;53.17;46.83;;;11.10;99.90;;;;;;4999898;28;20069;-91
2023/04/13 10:00:22;;;;;;;36.25;32.63;;;10.80;99.90;;;;;;5001732;28;20042;-88
2023/04/13 10:02:52;;;;;;;41.80;37.47;;;10.50;99.90;;;;;;4982899;28;20052;-90
2023/04/13 10:05:18;;;;;;;33.35;26.90;;;10.50;99.90;;;;;;5005350;28;20087;-91
2023/04/13 10:07:45;;;;;;;30.85;27.92;;;10.80;99.90;;;;;;5004397;28;20132;-90
2023/04/13 10:10:11;;;;;;;46.75;42.13;;;12.20;99.90;;;;;;5001843;28;20046;-91
2023/04/13 10:12:48;;;;;;;33.25;29.88;;;11.10;99.90;;;;;;5013375;28;20038;-90
2023/04/13 10:15:35;;;;;;;30.02;22.92;;;11.10;99.90;;;;;;5004951;28;20093;-89
2023/04/13 10:18:08;;;;;;;35.90;32.15;;;10.90;99.90;;;;;;4983389;28;20026;-89
2023/04/13 10:20:35;;;;;;;37.33;33.85;;;10.90;99.90;;;;;;4996867;28;20038;-90
2023/04/13 10:23:04;;;;;;;43.95;37.03;;;10.80;99.90;;;;;;4999001;28;20492;-90
2023/04/13 10:25:30;;;;;;;94.20;83.93;;;10.90;99.90;;;;;;5000186;28;20066;-89
2023/04/13 10:27:57;;;;;;;66.28;58.95;;;10.90;99.90;;;;;;5000248;28;20103;-89
2023/04/13 10:30:23;;;;;;;63.75;57.78;;;12.00;99.90;;;;;;4983824;28;20528;-90
2023/04/13 10:33:01;;;;;;;31.02;28.13;;;11.00;99.90;;;;;;5002320;28;20033;-89
2023/04/13 10:35:26;;;;;;;37.20;33.95;;;10.90;99.90;;;;;;4979779;28;20026;-90
2023/04/13 10:37:58;;;;;;;66.18;60.47;;;10.80;99.90;;;;;;5001294;28;20101;-91
2023/04/13 10:40:24;;;;;;;32.35;29.65;;;10.50;99.90;;;;;;4979394;28;20039;-91
2023/04/13 10:42:50;;;;;;;74.60;67.95;;;10.40;99.90;;;;;;4987476;28;20084;-90
2023/04/13 10:45:20;;;;;;;34.65;32.08;;;10.40;99.90;;;;;;4996780;28;20124;-90
2023/04/13 10:47:46;;;;;;;36.92;34.22;;;10.30;99.90;;;;;;4998024;28;20049;-91
2023/04/13 10:50:21;;;;;;;43.13;40.10;;;10.70;99.90;;;;;;5003557;28;20053;-91
2023/04/13 10:52:58;;;;;;;42.45;38.85;;;10.50;99.90;;;;;;5005465;28;20041;-92
2023/04/13 10:55:26;;;;;;;29.02;26.67;;;10.60;99.90;;;;;;5001744;28;20140;-92
2023/04/13 10:57:52;;;;;;;33.08;30.52;;;10.70;99.90;;;;;;4980095;28;20092;-91
2023/04/13 11:00:20;;;;;;;33.70;30.38;;;10.60;99.90;;;;;;4979300;28;20038;-91
2023/04/13 11:02:51;;;;;;;20.55;17.63;;;10.70;99.90;;;;;;4994815;28;20058;-92
2023/04/13 11:05:21;;;;;;;58.60;45.83;;;10.70;99.90;;;;;;4993688;28;20125;-91
2023/04/13 11:07:48;;;;;;;62.78;57.60;;;10.90;99.90;;;;;;4999593;28;20074;-90
2023/04/13 11:10:15;;;;;;;54.35;49.33;;;11.00;99.90;;;;;;4981238;28;20125;-91
2023/04/13 11:12:51;;;;;;;57.03;37.65;;;11.20;99.90;;;;;;4977350;28;20095;-90
2023/04/13 11:15:35;;;;;;;69.95;49.67;;;11.40;99.90;;;;;;4999151;28;20046;-90
2023/04/13 11:18:02;;;;;;;48.38;39.35;;;11.90;99.90;;;;;;4997766;28;20079;-91
2023/04/13 11:20:33;;;;;;;46.30;38.63;;;11.50;99.90;;;;;;4990657;28;20542;-90
2023/04/13 11:23:02;;;;;;;49.95;43.92;;;11.30;99.90;;;;;;5002637;28;20069;-90
2023/04/13 11:25:28;;;;;;;74.32;57.00;;;11.30;99.90;;;;;;5005801;28;20050;-91
2023/04/13 11:27:56;;;;;;;53.65;42.40;;;11.50;99.90;;;;;;4987663;28;20046;-90
2023/04/13 11:30:22;;;;;;;61.63;38.28;;;12.60;99.90;;;;;;4995936;28;20118;-88
2023/04/13 11:32:49;;;;;;;47.75;35.53;;;12.00;99.90;;;;;;5008440;28;20121;-88
2023/04/13 11:35:15;;;;;;;50.20;44.85;;;12.10;99.90;;;;;;5004556;28;20124;-89
2023/04/13 11:37:49;;;;;;;49.72;33.95;;;13.70;99.90;;;;;;4996019;28;20053;-88
2023/04/13 11:40:20;;;;;;;59.58;46.72;;;12.00;99.90;;;;;;4990573;28;20133;-90
2023/04/13 11:42:47;;;;;;;48.10;34.42;;;12.20;99.90;;;;;;5001489;28;20034;-90
2023/04/13 11:45:15;;;;;;;58.75;50.90;;;12.40;99.90;;;;;;4995731;28;20050;-89
2023/04/13 11:47:41;;;;;;;59.80;40.90;;;12.60;99.90;;;;;;5002753;28;20117;-91
2023/04/13 11:50:08;;;;;;;57.25;44.22;;;12.70;99.90;;;;;;4982360;28;20056;-91
2023/04/13 11:52:34;;;;;;;51.28;37.35;;;12.70;99.90;;;;;;4999890;28;20037;-90
2023/04/13 11:55:03;;;;;;;46.70;31.83;;;12.50;99.90;;;;;;4981436;28;20093;-90
2023/04/13 11:57:30;;;;;;;54.92;40.10;;;13.00;99.90;;;;;;4999687;28;20034;-91
2023/04/13 11:59:56;;;;;;;58.45;47.70;;;12.40;99.90;;;;;;4983049;28;20046;-90
2023/04/13 12:02:30;;;;;;;49.17;35.97;;;12.10;99.90;;;;;;4986671;28;20042;-90
2023/04/13 12:04:56;;;;;;;34.28;22.75;;;12.20;99.90;;;;;;4983741;28;20108;-91
2023/04/13 12:07:23;;;;;;;38.05;26.08;;;12.40;99.90;;;;;;4982138;28;20121;-91
2023/04/13 12:09:52;;;;;;;54.92;37.85;;;12.60;99.90;;;;;;5008708;28;20789;-90
2023/04/13 12:12:20;;;;;;;41.15;27.77;;;14.10;99.90;;;;;;4975721;28;20070;-90
2023/04/13 12:14:59;;;;;;;46.03;26.83;;;13.00;99.90;;;;;;4987001;28;20080;-91
2023/04/13 12:17:32;;;;;;;44.60;29.25;;;12.80;99.90;;;;;;4989138;28;20049;-91
2023/04/13 12:19:59;;;;;;;51.88;36.88;;;12.80;99.90;;;;;;4989781;28;20619;-92
2023/04/13 12:22:38;;;;;;;37.33;30.55;;;14.60;99.90;;;;;;5002939;28;20486;-91
2023/04/13 12:25:15;;;;;;;35.00;22.50;;;14.60;99.90;;;;;;5000493;28;20038;-91
2023/04/13 12:27:41;;;;;;;51.40;35.08;;;13.10;99.90;;;;;;5000044;28;20069;-91
2023/04/13 12:30:11;;;;;;;44.90;31.85;;;14.40;99.90;;;;;;5000787;28;20046;-91
2023/04/13 12:32:46;;;;;;;43.28;26.73;;;13.00;1.00;;;;;;4990770;28;20046;-90